»·PEaware :: N13C KSNA-KVCV

N13C :: KSNA-KVCV

FLIGHT INFORMATION

Flight Status: Arrived
Operator: Privately registered:
United States
More flights under this callsign
Pilot: Alec D. (17934)
Aircraft: BEECH AIRCRAFT BONANZA
(BE35)
More flights by this aircraft type
Origin: KSNA John Wayne-Orange Co
United States
Destination: KVCV Socal Logistics
United States
More flights between these airports :: More routes between these airports
Route: SLI V21 PDZ V442 APLES
File this flight plan on PilotEdge
Remarks:
Altitude:
(Current/Filed)
9,000ft
Speed:
(Current/Filed)
160kts
Departed: 27-Apr-20 07:26 AM
Arrived: 27-Apr-20 08:07 AM
Distance/Time
Traveled:
60nm/0:41
Distance/Time
To Go:
Arrived

Flight Plot

Page will automatically refresh every two minutes.


Map Options




Map Legend


Flown Route
Filed Route
Departure Airport
Arrival Airport
Navaid (VOR, NDB)
Fix

Horizontal Profiles

Position Reports

Time Latitude Longitude Heading Altitude Ground
Speed
27-Apr-20 07:03 33.666435 -117.873047 219 59ft 0kts
27-Apr-20 07:04 33.666435 -117.873047 219 59ft 0kts
27-Apr-20 07:05 33.666435 -117.873047 219 59ft 0kts
27-Apr-20 07:06 33.666435 -117.873047 219 59ft 0kts
27-Apr-20 07:07 33.666435 -117.873047 219 59ft 0kts
27-Apr-20 07:08 33.666432 -117.873050 219 59ft 0kts
27-Apr-20 07:09 33.666427 -117.873055 219 59ft 0kts
27-Apr-20 07:10 33.666422 -117.873060 219 59ft 0kts
27-Apr-20 07:11 33.666417 -117.873065 219 59ft 0kts
27-Apr-20 07:12 33.666412 -117.873070 219 59ft 0kts
27-Apr-20 07:13 33.666406 -117.873075 219 59ft 0kts
27-Apr-20 07:14 33.666402 -117.873080 219 59ft 0kts
27-Apr-20 07:15 33.666346 -117.873617 329 59ft 11kts
27-Apr-20 07:16 33.669773 -117.870584 38 59ft 16kts
27-Apr-20 07:17 33.673207 -117.866866 46 59ft 15kts
27-Apr-20 07:18 33.676162 -117.865760 30 59ft 18kts
27-Apr-20 07:19 33.679671 -117.863814 348 59ft 0kts
27-Apr-20 07:20 33.679677 -117.863816 348 59ft 0kts
27-Apr-20 07:21 33.679689 -117.863819 348 59ft 0kts
27-Apr-20 07:22 33.679694 -117.863820 348 59ft 0kts
27-Apr-20 07:23 33.679700 -117.863822 348 59ft 0kts
27-Apr-20 07:24 33.679815 -117.863971 292 59ft 10kts
27-Apr-20 07:25 33.674163 -117.867956 210 60ft 81kts
27-Apr-20 07:26 33.654733 -117.889407 235 1045ft 101kts
27-Apr-20 07:27 33.637805 -117.917648 234 1943ft 106kts
27-Apr-20 07:28 33.620005 -117.945824 234 2894ft 108kts
27-Apr-20 07:29 33.603464 -117.976037 271 3771ft 109kts
27-Apr-20 07:30 33.632097 -117.994305 342 4012ft 141kts
27-Apr-20 07:31 33.671185 -118.008084 342 3980ft 148kts
27-Apr-20 07:32 33.710620 -118.022700 343 3976ft 149kts
27-Apr-20 07:33 33.749318 -118.020551 31 4009ft 149kts
27-Apr-20 07:35 33.776309 -117.984527 71 4005ft 153kts
27-Apr-20 07:36 33.792780 -117.938587 61 4401ft 135kts
27-Apr-20 07:37 33.807818 -117.900294 63 5371ft 122kts
27-Apr-20 07:38 33.821880 -117.863469 58 5987ft 135kts
27-Apr-20 07:39 33.838115 -117.820906 64 6418ft 128kts
27-Apr-20 07:40 33.850638 -117.783736 69 7230ft 118kts
27-Apr-20 07:41 33.861600 -117.747671 65 7968ft 115kts
27-Apr-20 07:42 33.870957 -117.710988 62 8634ft 114kts
27-Apr-20 07:43 33.879935 -117.671966 70 9035ft 139kts
27-Apr-20 07:44 33.891982 -117.624377 67 9055ft 153kts
27-Apr-20 07:45 33.904849 -117.573876 67 9033ft 159kts
27-Apr-20 07:46 33.923546 -117.526850 25 9037ft 153kts
27-Apr-20 07:47 33.962730 -117.504428 24 9033ft 158kts
27-Apr-20 07:48 34.002088 -117.479851 23 9033ft 158kts
27-Apr-20 07:49 34.041091 -117.456318 23 9037ft 155kts
27-Apr-20 07:50 34.080995 -117.432304 23 9033ft 158kts
27-Apr-20 07:51 34.119768 -117.408985 23 9039ft 154kts
27-Apr-20 07:52 34.158635 -117.385578 23 9039ft 155kts
27-Apr-20 07:52 34.190699 -117.366248 23 9055ft 153kts
27-Apr-20 07:53 34.229810 -117.342663 23 9058ft 158kts
27-Apr-20 07:55 34.275166 -117.315243 23 9060ft 155kts
27-Apr-20 07:55 34.307330 -117.295794 23 9042ft 155kts
27-Apr-20 07:56 34.345912 -117.272441 23 9047ft 154kts
27-Apr-20 07:57 34.385745 -117.248298 23 9056ft 163kts
27-Apr-20 07:58 34.426692 -117.223840 13 9083ft 159kts
27-Apr-20 07:59 34.468662 -117.226303 350 9098ft 148kts
27-Apr-20 08:00 34.494386 -117.267248 292 8049ft 167kts
27-Apr-20 08:01 34.511538 -117.319573 292 6916ft 166kts
27-Apr-20 08:02 34.535412 -117.365330 333 5900ft 165kts
27-Apr-20 08:03 34.577720 -117.363730 46 4502ft 164kts
27-Apr-20 08:04 34.606596 -117.335685 339 3868ft 120kts
27-Apr-20 08:05 34.604250 -117.362140 225 3048ft 90kts
27-Apr-20 08:06 34.593555 -117.374849 223 2888ft 18kts
27-Apr-20 08:07 34.590112 -117.378784 189 2888ft 12kts
27-Apr-20 08:08 34.588062 -117.376771 162 2888ft 11kts

Navigation Log

Ident Type
Flight plan parsing failed, navigation log unavailable